sensor_id;sensor_type;location;lat;lon;timestamp;pressure;altitude;pressure_sealevel;temperature;humidity
75788;BME280;64406;50.024;14.492;2023-02-15T00:01:40;99632.41;;;1.72;77.78
75788;BME280;64406;50.024;14.492;2023-02-15T00:04:07;99637.91;;;1.85;77.13
75788;BME280;64406;50.024;14.492;2023-02-15T00:06:33;99636.81;;;1.79;77.44
75788;BME280;64406;50.024;14.492;2023-02-15T00:08:59;99636.28;;;1.69;77.72
75788;BME280;64406;50.024;14.492;2023-02-15T00:11:25;99633.28;;;1.72;77.99
75788;BME280;64406;50.024;14.492;2023-02-15T00:14:11;99628.16;;;1.56;78.20
75788;BME280;64406;50.024;14.492;2023-02-15T00:16:39;99633.94;;;1.59;78.38
75788;BME280;64406;50.024;14.492;2023-02-15T00:19:05;99626.13;;;1.58;78.45
75788;BME280;64406;50.024;14.492;2023-02-15T00:21:32;99621.00;;;1.56;78.51
75788;BME280;64406;50.024;14.492;2023-02-15T00:23:59;99623.47;;;1.58;78.42
75788;BME280;64406;50.024;14.492;2023-02-15T00:26:26;99635.03;;;1.50;78.40
75788;BME280;64406;50.024;14.492;2023-02-15T00:28:52;99621.56;;;1.52;78.26
75788;BME280;64406;50.024;14.492;2023-02-15T00:31:19;99634.75;;;1.45;78.56
75788;BME280;64406;50.024;14.492;2023-02-15T00:33:45;99623.50;;;1.43;78.65
75788;BME280;64406;50.024;14.492;2023-02-15T00:36:11;99628.72;;;1.36;78.78
75788;BME280;64406;50.024;14.492;2023-02-15T00:38:37;99628.72;;;1.36;78.56
75788;BME280;64406;50.024;14.492;2023-02-15T00:41:04;99623.00;;;1.33;78.80
75788;BME280;64406;50.024;14.492;2023-02-15T00:43:31;99623.97;;;1.32;78.76
75788;BME280;64406;50.024;14.492;2023-02-15T00:45:57;99618.22;;;1.28;79.11
75788;BME280;64406;50.024;14.492;2023-02-15T00:48:23;99624.25;;;1.37;78.99
75788;BME280;64406;50.024;14.492;2023-02-15T00:50:53;99623.06;;;1.40;78.78
75788;BME280;64406;50.024;14.492;2023-02-15T00:53:19;99621.88;;;1.27;78.85
75788;BME280;64406;50.024;14.492;2023-02-15T00:55:45;99621.81;;;1.21;78.92
75788;BME280;64406;50.024;14.492;2023-02-15T00:58:11;99614.56;;;1.15;79.27
75788;BME280;64406;50.024;14.492;2023-02-15T01:00:37;99620.69;;;1.15;79.27
75788;BME280;64406;50.024;14.492;2023-02-15T01:03:04;99622.63;;;1.21;79.52
75788;BME280;64406;50.024;14.492;2023-02-15T01:05:31;99615.00;;;1.18;79.01
75788;BME280;64406;50.024;14.492;2023-02-15T01:07:58;99621.81;;;1.21;79.17
75788;BME280;64406;50.024;14.492;2023-02-15T01:10:25;99609.91;;;1.17;79.06
75788;BME280;64406;50.024;14.492;2023-02-15T01:12:52;99608.88;;;1.18;79.38
75788;BME280;64406;50.024;14.492;2023-02-15T01:15:18;99609.16;;;1.23;79.34
75788;BME280;64406;50.024;14.492;2023-02-15T01:17:44;99602.28;;;1.28;78.77
75788;BME280;64406;50.024;14.492;2023-02-15T01:20:17;99604.03;;;1.21;79.06
75788;BME280;64406;50.024;14.492;2023-02-15T01:22:43;99601.66;;;1.26;79.03
75788;BME280;64406;50.024;14.492;2023-02-15T01:25:08;99604.59;;;1.17;79.43
75788;BME280;64406;50.024;14.492;2023-02-15T01:27:34;99608.25;;;1.16;79.23
75788;BME280;64406;50.024;14.492;2023-02-15T01:30:00;99599.09;;;1.03;79.61
75788;BME280;64406;50.024;14.492;2023-02-15T01:32:25;99595.81;;;1.01;79.36
75788;BME280;64406;50.024;14.492;2023-02-15T01:34:52;99596.00;;;1.00;79.66
75788;BME280;64406;50.024;14.492;2023-02-15T01:37:18;99591.69;;;0.99;79.72
75788;BME280;64406;50.024;14.492;2023-02-15T01:39:43;99579.81;;;0.95;79.48
75788;BME280;64406;50.024;14.492;2023-02-15T01:42:11;99581.44;;;0.96;79.88
75788;BME280;64406;50.024;14.492;2023-02-15T01:47:11;99574.22;;;1.04;79.53
75788;BME280;64406;50.024;14.492;2023-02-15T01:49:38;99570.66;;;0.97;80.26
75788;BME280;64406;50.024;14.492;2023-02-15T01:52:08;99566.53;;;0.95;80.01
75788;BME280;64406;50.024;14.492;2023-02-15T01:54:36;99572.56;;;0.89;79.94
75788;BME280;64406;50.024;14.492;2023-02-15T01:57:10;99565.72;;;0.79;80.53
75788;BME280;64406;50.024;14.492;2023-02-15T01:59:39;99558.59;;;0.80;80.36
75788;BME280;64406;50.024;14.492;2023-02-15T02:02:09;99561.41;;;0.78;80.60
75788;BME280;64406;50.024;14.492;2023-02-15T02:04:47;99560.88;;;0.83;80.44
75788;BME280;64406;50.024;14.492;2023-02-15T02:07:16;99546.97;;;0.96;79.49
75788;BME280;64406;50.024;14.492;2023-02-15T02:09:43;99551.63;;;1.08;79.02
75788;BME280;64406;50.024;14.492;2023-02-15T02:12:10;99548.66;;;1.18;78.76
75788;BME280;64406;50.024;14.492;2023-02-15T02:14:36;99544.94;;;1.13;79.19
75788;BME280;64406;50.024;14.492;2023-02-15T02:23:55;99543.66;;;0.79;79.92
75788;BME280;64406;50.024;14.492;2023-02-15T02:35:01;99542.84;;;0.78;79.91
75788;BME280;64406;50.024;14.492;2023-02-15T02:40:30;99543.75;;;0.71;80.14
75788;BME280;64406;50.024;14.492;2023-02-15T02:43:22;99530.97;;;0.74;80.12
75788;BME280;64406;50.024;14.492;2023-02-15T02:46:07;99530.31;;;0.72;79.68
75788;BME280;64406;50.024;14.492;2023-02-15T02:48:34;99533.16;;;0.71;79.94
75788;BME280;64406;50.024;14.492;2023-02-15T02:51:00;99535.63;;;0.72;80.17
75788;BME280;64406;50.024;14.492;2023-02-15T02:53:29;99539.28;;;0.71;80.05
75788;BME280;64406;50.024;14.492;2023-02-15T02:55:59;99524.47;;;0.77;80.28
75788;BME280;64406;50.024;14.492;2023-02-15T03:01:35;99535.16;;;0.69;79.79
75788;BME280;64406;50.024;14.492;2023-02-15T03:04:06;99532.72;;;0.67;79.93
75788;BME280;64406;50.024;14.492;2023-02-15T03:09:23;99533.81;;;0.73;79.96
75788;BME280;64406;50.024;14.492;2023-02-15T03:11:49;99533.53;;;0.68;80.35
75788;BME280;64406;50.024;14.492;2023-02-15T03:14:18;99533.34;;;0.54;79.88
75788;BME280;64406;50.024;14.492;2023-02-15T03:16:47;99530.69;;;0.54;80.54
75788;BME280;64406;50.024;14.492;2023-02-15T03:19:19;99542.75;;;0.57;80.06
75788;BME280;64406;50.024;14.492;2023-02-15T03:21:49;99533.44;;;0.61;80.00
75788;BME280;64406;50.024;14.492;2023-02-15T03:24:39;99528.94;;;0.62;80.23
75788;BME280;64406;50.024;14.492;2023-02-15T03:27:11;99528.84;;;0.55;79.96
75788;BME280;64406;50.024;14.492;2023-02-15T03:29:38;99521.91;;;0.54;80.17
75788;BME280;64406;50.024;14.492;2023-02-15T03:32:07;99515.50;;;0.48;80.49
75788;BME280;64406;50.024;14.492;2023-02-15T03:34:34;99519.31;;;0.46;80.54
75788;BME280;64406;50.024;14.492;2023-02-15T03:39:52;99519.06;;;0.41;80.61
75788;BME280;64406;50.024;14.492;2023-02-15T03:42:32;99515.22;;;0.43;80.53
75788;BME280;64406;50.024;14.492;2023-02-15T03:45:12;99515.41;;;0.42;80.80
75788;BME280;64406;50.024;14.492;2023-02-15T03:47:43;99514.59;;;0.41;80.83
75788;BME280;64406;50.024;14.492;2023-02-15T03:50:21;99500.97;;;0.44;80.52
75788;BME280;64406;50.024;14.492;2023-02-15T03:53:10;99508.19;;;0.36;80.50
75788;BME280;64406;50.024;14.492;2023-02-15T03:55:38;99507.53;;;0.34;80.76
75788;BME280;64406;50.024;14.492;2023-02-15T03:58:04;99506.97;;;0.38;80.98
75788;BME280;64406;50.024;14.492;2023-02-15T04:00:59;99500.50;;;0.41;81.13
75788;BME280;64406;50.024;14.492;2023-02-15T04:04:08;99511.19;;;0.33;80.49
75788;BME280;64406;50.024;14.492;2023-02-15T04:06:37;99503.69;;;0.36;80.75
75788;BME280;64406;50.024;14.492;2023-02-15T04:09:03;99507.75;;;0.47;80.88
75788;BME280;64406;50.024;14.492;2023-02-15T04:11:46;99506.72;;;0.48;80.52
75788;BME280;64406;50.024;14.492;2023-02-15T04:14:12;99509.38;;;0.48;80.06
75788;BME280;64406;50.024;14.492;2023-02-15T04:16:56;99501.53;;;0.54;80.25
75788;BME280;64406;50.024;14.492;2023-02-15T04:19:22;99510.47;;;0.39;80.86
75788;BME280;64406;50.024;14.492;2023-02-15T04:22:06;99503.31;;;0.39;81.13
75788;BME280;64406;50.024;14.492;2023-02-15T04:24:50;99501.06;;;0.36;80.97
75788;BME280;64406;50.024;14.492;2023-02-15T04:27:35;99503.16;;;0.41;80.86
75788;BME280;64406;50.024;14.492;2023-02-15T04:30:01;99493.47;;;0.33;80.78
75788;BME280;64406;50.024;14.492;2023-02-15T04:32:26;99493.47;;;0.33;80.58
75788;BME280;64406;50.024;14.492;2023-02-15T04:34:53;99498.31;;;0.44;81.12
75788;BME280;64406;50.024;14.492;2023-02-15T04:37:18;99505.34;;;0.52;80.38
75788;BME280;64406;50.024;14.492;2023-02-15T04:39:44;99499.88;;;0.53;80.38
75788;BME280;64406;50.024;14.492;2023-02-15T04:42:10;99498.41;;;0.51;80.03
75788;BME280;64406;50.024;14.492;2023-02-15T04:44:35;99495.84;;;0.58;80.05
75788;BME280;64406;50.024;14.492;2023-02-15T04:47:01;99498.31;;;0.44;79.93
75788;BME280;64406;50.024;14.492;2023-02-15T04:49:26;99491.56;;;0.42;79.93
75788;BME280;64406;50.024;14.492;2023-02-15T04:51:52;99488.00;;;0.49;79.73
75788;BME280;64406;50.024;14.492;2023-02-15T04:54:18;99497.19;;;0.39;80.13
75788;BME280;64406;50.024;14.492;2023-02-15T04:56:43;99493.81;;;0.30;80.39
75788;BME280;64406;50.024;14.492;2023-02-15T04:59:10;99495.56;;;0.23;81.01
75788;BME280;64406;50.024;14.492;2023-02-15T05:01:36;99488.84;;;0.12;81.11
75788;BME280;64406;50.024;14.492;2023-02-15T05:04:02;99482.38;;;0.15;81.03
75788;BME280;64406;50.024;14.492;2023-02-15T05:06:28;99492.16;;;0.14;81.78
75788;BME280;64406;50.024;14.492;2023-02-15T05:08:53;99485.13;;;0.21;81.52
75788;BME280;64406;50.024;14.492;2023-02-15T05:11:19;99485.25;;;0.28;80.88
75788;BME280;64406;50.024;14.492;2023-02-15T05:13:45;99491.69;;;0.25;80.39
75788;BME280;64406;50.024;14.492;2023-02-15T05:16:10;99489.63;;;0.21;80.87
75788;BME280;64406;50.024;14.492;2023-02-15T05:18:36;99488.69;;;0.14;80.99
75788;BME280;64406;50.024;14.492;2023-02-15T05:21:01;99484.84;;;0.16;81.05
75788;BME280;64406;50.024;14.492;2023-02-15T05:23:27;99488.75;;;0.06;81.26
75788;BME280;64406;50.024;14.492;2023-02-15T05:25:52;99486.47;;;0.03;81.61
75788;BME280;64406;50.024;14.492;2023-02-15T05:28:38;99487.03;;;0.13;81.28
75788;BME280;64406;50.024;14.492;2023-02-15T05:31:05;99486.56;;;0.09;81.30
75788;BME280;64406;50.024;14.492;2023-02-15T05:33:32;99486.22;;;0.12;81.36
75788;BME280;64406;50.024;14.492;2023-02-15T05:35:57;99483.66;;;0.19;81.13
75788;BME280;64406;50.024;14.492;2023-02-15T05:38:23;99482.91;;;-0.05;80.74
75788;BME280;64406;50.024;14.492;2023-02-15T05:40:50;99490.56;;;-0.10;81.39
75788;BME280;64406;50.024;14.492;2023-02-15T05:43:16;99502.78;;;-0.09;81.08
75788;BME280;64406;50.024;14.492;2023-02-15T05:45:50;99502.06;;;-0.03;81.32
75788;BME280;64406;50.024;14.492;2023-02-15T05:48:17;99499.94;;;-0.07;81.48
75788;BME280;64406;50.024;14.492;2023-02-15T05:50:43;99491.66;;;-0.04;81.55
75788;BME280;64406;50.024;14.492;2023-02-15T05:53:09;99492.78;;;-0.21;81.41
75788;BME280;64406;50.024;14.492;2023-02-15T05:55:37;99489.69;;;-0.25;82.09
75788;BME280;64406;50.024;14.492;2023-02-15T05:58:04;99493.69;;;-0.29;81.32
75788;BME280;64406;50.024;14.492;2023-02-15T06:00:29;99499.50;;;-0.34;81.67
75788;BME280;64406;50.024;14.492;2023-02-15T06:02:55;99496.03;;;-0.34;82.06
75788;BME280;64406;50.024;14.492;2023-02-15T06:05:21;99508.22;;;-0.48;81.93
75788;BME280;64406;50.024;14.492;2023-02-15T06:07:47;99497.31;;;-0.53;82.13
75788;BME280;64406;50.024;14.492;2023-02-15T06:10:12;99500.16;;;-0.55;82.59
75788;BME280;64406;50.024;14.492;2023-02-15T06:12:38;99505.69;;;-0.64;83.05
75788;BME280;64406;50.024;14.492;2023-02-15T06:15:04;99503.69;;;-0.62;82.87
75788;BME280;64406;50.024;14.492;2023-02-15T06:17:30;99514.13;;;-0.69;83.23
75788;BME280;64406;50.024;14.492;2023-02-15T06:19:55;99516.00;;;-0.77;82.70
75788;BME280;64406;50.024;14.492;2023-02-15T06:22:21;99518.97;;;-0.72;83.11
75788;BME280;64406;50.024;14.492;2023-02-15T06:24:48;99522.59;;;-0.73;83.08
75788;BME280;64406;50.024;14.492;2023-02-15T06:27:14;99524.72;;;-0.69;83.06
75788;BME280;64406;50.024;14.492;2023-02-15T06:29:39;99527.19;;;-0.67;83.20
75788;BME280;64406;50.024;14.492;2023-02-15T06:32:05;99526.53;;;-0.69;83.28
75788;BME280;64406;50.024;14.492;2023-02-15T06:34:31;99515.59;;;-0.66;83.38
75788;BME280;64406;50.024;14.492;2023-02-15T06:36:57;99533.66;;;-0.70;82.93
75788;BME280;64406;50.024;14.492;2023-02-15T06:39:23;99521.44;;;-0.71;83.15
75788;BME280;64406;50.024;14.492;2023-02-15T06:41:48;99531.78;;;-0.61;83.14
75788;BME280;64406;50.024;14.492;2023-02-15T06:44:14;99527.50;;;-0.62;83.11
75788;BME280;64406;50.024;14.492;2023-02-15T06:46:40;99534.25;;;-0.60;82.95
75788;BME280;64406;50.024;14.492;2023-02-15T06:49:07;99532.13;;;-0.64;82.54
75788;BME280;64406;50.024;14.492;2023-02-15T06:51:32;99532.00;;;-0.71;82.36
75788;BME280;64406;50.024;14.492;2023-02-15T06:53:59;99541.09;;;-0.65;82.60
75788;BME280;64406;50.024;14.492;2023-02-15T06:56:25;99538.38;;;-0.57;82.50
75788;BME280;64406;50.024;14.492;2023-02-15T06:58:51;99532.56;;;-0.52;81.83
75788;BME280;64406;50.024;14.492;2023-02-15T07:01:19;99536.06;;;-0.60;82.17
75788;BME280;64406;50.024;14.492;2023-02-15T07:03:44;99541.34;;;-0.60;81.89
75788;BME280;64406;50.024;14.492;2023-02-15T07:06:10;99543.31;;;-0.54;82.26
75788;BME280;64406;50.024;14.492;2023-02-15T07:08:37;99535.56;;;-0.56;81.62
75788;BME280;64406;50.024;14.492;2023-02-15T07:11:04;99546.44;;;-0.50;82.24
75788;BME280;64406;50.024;14.492;2023-02-15T07:13:48;99550.03;;;-0.20;81.01
75788;BME280;64406;50.024;14.492;2023-02-15T07:16:14;99541.47;;;-0.22;80.69
75788;BME280;64406;50.024;14.492;2023-02-15T07:18:40;99549.34;;;-0.14;80.69
75788;BME280;64406;50.024;14.492;2023-02-15T07:21:06;99542.91;;;-0.20;81.22
75788;BME280;64406;50.024;14.492;2023-02-15T07:23:36;99534.44;;;-0.15;80.74
75788;BME280;64406;50.024;14.492;2023-02-15T07:26:03;99538.09;;;-0.16;80.42
75788;BME280;64406;50.024;14.492;2023-02-15T07:28:29;99523.25;;;-0.48;80.81
75788;BME280;64406;50.024;14.492;2023-02-15T07:30:55;99526.84;;;-0.41;80.99
75788;BME280;64406;50.024;14.492;2023-02-15T07:33:22;99530.16;;;-0.16;80.69
75788;BME280;64406;50.024;14.492;2023-02-15T07:38:14;99522.47;;;-0.26;80.82
75788;BME280;64406;50.024;14.492;2023-02-15T07:40:40;99515.16;;;-0.24;80.63
75788;BME280;64406;50.024;14.492;2023-02-15T07:43:05;99508.38;;;-0.27;80.63
75788;BME280;64406;50.024;14.492;2023-02-15T07:45:31;99500.09;;;-0.23;80.49
75788;BME280;64406;50.024;14.492;2023-02-15T07:47:57;99501.75;;;-0.22;79.94
75788;BME280;64406;50.024;14.492;2023-02-15T07:50:22;99502.50;;;-0.37;80.16
75788;BME280;64406;50.024;14.492;2023-02-15T07:52:48;99489.28;;;-0.37;80.72
75788;BME280;64406;50.024;14.492;2023-02-15T07:55:14;99490.47;;;-0.39;80.78
75788;BME280;64406;50.024;14.492;2023-02-15T07:57:43;99490.28;;;-0.38;80.73
75788;BME280;64406;50.024;14.492;2023-02-15T08:00:14;99485.56;;;-0.28;80.21
75788;BME280;64406;50.024;14.492;2023-02-15T08:02:41;99482.50;;;-0.16;80.22
75788;BME280;64406;50.024;14.492;2023-02-15T08:05:07;99491.84;;;-0.06;80.42
75788;BME280;64406;50.024;14.492;2023-02-15T08:07:33;99494.50;;;-0.06;80.28
75788;BME280;64406;50.024;14.492;2023-02-15T08:09:58;99500.06;;;-0.01;80.06
75788;BME280;64406;50.024;14.492;2023-02-15T08:12:27;99497.97;;;-0.05;79.49
75788;BME280;64406;50.024;14.492;2023-02-15T08:14:53;99491.75;;;-0.12;79.71
75788;BME280;64406;50.024;14.492;2023-02-15T08:17:18;99496.78;;;-0.03;79.24
75788;BME280;64406;50.024;14.492;2023-02-15T08:19:44;99496.31;;;-0.06;79.83
75788;BME280;64406;50.024;14.492;2023-02-15T08:22:13;99496.97;;;-0.04;79.89
75788;BME280;64406;50.024;14.492;2023-02-15T08:24:40;99489.31;;;0.01;79.54
75788;BME280;64406;50.024;14.492;2023-02-15T08:27:08;99495.06;;;0.05;78.90
75788;BME280;64406;50.024;14.492;2023-02-15T08:29:35;99487.50;;;0.16;79.30
75788;BME280;64406;50.024;14.492;2023-02-15T08:32:03;99484.94;;;0.23;78.73
75788;BME280;64406;50.024;14.492;2023-02-15T08:34:33;99486.75;;;0.08;78.86
75788;BME280;64406;50.024;14.492;2023-02-15T08:37:00;99484.28;;;0.06;79.44
75788;BME280;64406;50.024;14.492;2023-02-15T08:39:26;99487.88;;;0.13;79.04
75788;BME280;64406;50.024;14.492;2023-02-15T08:41:52;99482.41;;;0.30;78.38
75788;BME280;64406;50.024;14.492;2023-02-15T08:44:18;99478.84;;;0.22;78.43
75788;BME280;64406;50.024;14.492;2023-02-15T08:46:46;99483.66;;;0.19;78.64
75788;BME280;64406;50.024;14.492;2023-02-15T08:49:20;99476.66;;;0.41;78.18
75788;BME280;64406;50.024;14.492;2023-02-15T08:51:46;99475.38;;;0.51;77.93
75788;BME280;64406;50.024;14.492;2023-02-15T08:54:15;99473.28;;;0.47;77.82
75788;BME280;64406;50.024;14.492;2023-02-15T08:56:42;99474.66;;;0.43;77.39
75788;BME280;64406;50.024;14.492;2023-02-15T08:59:14;99475.56;;;0.35;78.08
75788;BME280;64406;50.024;14.492;2023-02-15T09:01:40;99478.75;;;0.31;78.07
75788;BME280;64406;50.024;14.492;2023-02-15T09:04:07;99467.41;;;0.51;77.36
75788;BME280;64406;50.024;14.492;2023-02-15T09:06:34;99461.19;;;0.74;76.80
75788;BME280;64406;50.024;14.492;2023-02-15T09:09:00;99466.31;;;0.75;77.59
75788;BME280;64406;50.024;14.492;2023-02-15T09:11:30;99470.69;;;0.83;76.52
75788;BME280;64406;50.024;14.492;2023-02-15T09:14:02;99474.06;;;0.77;76.51
75788;BME280;64406;50.024;14.492;2023-02-15T09:16:30;99468.78;;;0.77;76.76
75788;BME280;64406;50.024;14.492;2023-02-15T09:18:57;99467.84;;;0.85;75.74
75788;BME280;64406;50.024;14.492;2023-02-15T09:21:24;99478.38;;;0.93;76.14
75788;BME280;64406;50.024;14.492;2023-02-15T09:23:52;99470.72;;;1.04;75.46
75788;BME280;64406;50.024;14.492;2023-02-15T09:26:21;99474.25;;;0.90;75.19
75788;BME280;64406;50.024;14.492;2023-02-15T09:28:51;99468.38;;;0.95;75.61
75788;BME280;64406;50.024;14.492;2023-02-15T09:31:20;99463.28;;;0.78;75.93
75788;BME280;64406;50.024;14.492;2023-02-15T09:33:48;99469.31;;;0.87;76.29
75788;BME280;64406;50.024;14.492;2023-02-15T09:36:17;99465.34;;;0.98;75.79
75788;BME280;64406;50.024;14.492;2023-02-15T09:38:47;99454.84;;;0.90;75.50
75788;BME280;64406;50.024;14.492;2023-02-15T09:44:23;99455.31;;;0.93;75.88
75788;BME280;64406;50.024;14.492;2023-02-15T09:52:22;99462.88;;;0.96;75.71
75788;BME280;64406;50.024;14.492;2023-02-15T09:55:01;99451.50;;;0.81;75.65
75788;BME280;64406;50.024;14.492;2023-02-15T09:57:49;99452.78;;;0.70;76.06
75788;BME280;64406;50.024;14.492;2023-02-15T10:00:23;99448.88;;;0.66;76.21
75788;BME280;64406;50.024;14.492;2023-02-15T10:05:44;99451.69;;;0.50;76.93
75788;BME280;64406;50.024;14.492;2023-02-15T10:22:33;99455.13;;;0.95;74.80
75788;BME280;64406;50.024;14.492;2023-02-15T10:25:13;99451.59;;;1.09;74.39
75788;BME280;64406;50.024;14.492;2023-02-15T10:27:49;99446.84;;;1.19;74.32
75788;BME280;64406;50.024;14.492;2023-02-15T10:30:23;99448.69;;;1.40;73.35
75788;BME280;64406;50.024;14.492;2023-02-15T10:33:01;99447.88;;;1.25;73.80
75788;BME280;64406;50.024;14.492;2023-02-15T10:35:55;99459.59;;;1.30;73.64
75788;BME280;64406;50.024;14.492;2023-02-15T10:38:47;99441.91;;;1.59;72.96
75788;BME280;64406;50.024;14.492;2023-02-15T10:41:29;99451.50;;;1.39;72.71
75788;BME280;64406;50.024;14.492;2023-02-15T10:44:05;99445.16;;;1.18;73.31
75788;BME280;64406;50.024;14.492;2023-02-15T10:46:43;99442.00;;;1.08;73.68
75788;BME280;64406;50.024;14.492;2023-02-15T11:03:05;99427.59;;;1.17;74.74
75788;BME280;64406;50.024;14.492;2023-02-15T11:05:37;99421.63;;;1.30;74.00
75788;BME280;64406;50.024;14.492;2023-02-15T11:08:09;99413.66;;;1.30;74.11
75788;BME280;64406;50.024;14.492;2023-02-15T11:10:39;99419.69;;;1.02;74.35
75788;BME280;64406;50.024;14.492;2023-02-15T11:13:14;99413.03;;;0.92;74.62
75788;BME280;64406;50.024;14.492;2023-02-15T11:15:46;99408.13;;;1.10;75.36
75788;BME280;64406;50.024;14.492;2023-02-15T11:18:24;99400.38;;;1.30;74.05
75788;BME280;64406;50.024;14.492;2023-02-15T11:21:16;99408.53;;;1.28;74.17
75788;BME280;64406;50.024;14.492;2023-02-15T11:23:46;99403.34;;;1.20;74.10
75788;BME280;64406;50.024;14.492;2023-02-15T11:26:17;99403.03;;;1.30;73.99
75788;BME280;64406;50.024;14.492;2023-02-15T11:28:54;99397.66;;;1.02;75.01
75788;BME280;64406;50.024;14.492;2023-02-15T11:31:25;99394.25;;;0.87;75.83
75788;BME280;64406;50.024;14.492;2023-02-15T11:33:58;99397.88;;;0.86;75.37
75788;BME280;64406;50.024;14.492;2023-02-15T11:36:31;99387.66;;;1.04;75.25
75788;BME280;64406;50.024;14.492;2023-02-15T11:39:03;99391.47;;;1.16;74.38
75788;BME280;64406;50.024;14.492;2023-02-15T11:41:37;99386.44;;;1.21;74.23
75788;BME280;64406;50.024;14.492;2023-02-15T11:44:17;99384.81;;;1.48;73.51
75788;BME280;64406;50.024;14.492;2023-02-15T11:46:46;99382.94;;;1.70;73.03
75788;BME280;64406;50.024;14.492;2023-02-15T11:49:22;99384.38;;;1.45;73.56
75788;BME280;64406;50.024;14.492;2023-02-15T11:51:48;99381.72;;;1.45;74.07
75788;BME280;64406;50.024;14.492;2023-02-15T11:54:18;99377.31;;;1.09;74.76
75788;BME280;64406;50.024;14.492;2023-02-15T11:56:46;99370.81;;;1.12;75.65
75788;BME280;64406;50.024;14.492;2023-02-15T11:59:28;99369.91;;;1.04;76.07
75788;BME280;64406;50.024;14.492;2023-02-15T12:01:56;99360.44;;;1.38;75.48
75788;BME280;64406;50.024;14.492;2023-02-15T12:04:41;99341.34;;;1.49;74.67
75788;BME280;64406;50.024;14.492;2023-02-15T12:07:17;99359.22;;;1.97;73.11
75788;BME280;64406;50.024;14.492;2023-02-15T12:12:45;99363.78;;;2.51;70.30
75788;BME280;64406;50.024;14.492;2023-02-15T12:15:12;99355.41;;;2.47;70.73
75788;BME280;64406;50.024;14.492;2023-02-15T12:17:41;99331.16;;;2.22;70.98
75788;BME280;64406;50.024;14.492;2023-02-15T12:22:41;99350.34;;;2.17;71.64
75788;BME280;64406;50.024;14.492;2023-02-15T12:27:58;99328.06;;;2.12;71.84
75788;BME280;64406;50.024;14.492;2023-02-15T12:30:35;99340.16;;;2.21;71.53
75788;BME280;64406;50.024;14.492;2023-02-15T12:33:28;99339.16;;;2.29;71.27
75788;BME280;64406;50.024;14.492;2023-02-15T12:36:18;99319.88;;;2.13;70.93
75788;BME280;64406;50.024;14.492;2023-02-15T12:39:22;99325.72;;;2.43;70.60
75788;BME280;64406;50.024;14.492;2023-02-15T12:44:30;99310.69;;;2.84;69.22
75788;BME280;64406;50.024;14.492;2023-02-15T12:49:42;99309.00;;;2.63;69.93
75788;BME280;64406;50.024;14.492;2023-02-15T12:54:44;99300.69;;;2.86;69.22
75788;BME280;64406;50.024;14.492;2023-02-15T13:00:11;99307.03;;;2.91;69.25
75788;BME280;64406;50.024;14.492;2023-02-15T13:02:53;99296.94;;;2.54;69.83
75788;BME280;64406;50.024;14.492;2023-02-15T13:05:47;99313.31;;;2.70;69.88
75788;BME280;64406;50.024;14.492;2023-02-15T13:08:16;99300.22;;;2.69;69.24
75788;BME280;64406;50.024;14.492;2023-02-15T13:11:07;99302.31;;;2.80;69.34
75788;BME280;64406;50.024;14.492;2023-02-15T13:13:59;99299.66;;;2.80;68.66
75788;BME280;64406;50.024;14.492;2023-02-15T13:16:37;99277.34;;;2.94;68.26
75788;BME280;64406;50.024;14.492;2023-02-15T13:19:18;99289.66;;;3.15;67.91
75788;BME280;64406;50.024;14.492;2023-02-15T13:21:47;99280.84;;;2.95;68.52
75788;BME280;64406;50.024;14.492;2023-02-15T13:24:21;99280.03;;;3.01;68.48
75788;BME280;64406;50.024;14.492;2023-02-15T13:26:48;99292.09;;;3.04;68.08
75788;BME280;64406;50.024;14.492;2023-02-15T13:29:22;99293.50;;;2.73;69.18
75788;BME280;64406;50.024;14.492;2023-02-15T13:31:54;99277.69;;;2.52;69.46
75788;BME280;64406;50.024;14.492;2023-02-15T13:34:28;99284.50;;;2.74;69.37
75788;BME280;64406;50.024;14.492;2023-02-15T13:36:58;99277.53;;;2.80;69.06
75788;BME280;64406;50.024;14.492;2023-02-15T13:42:32;99268.34;;;3.28;67.52
75788;BME280;64406;50.024;14.492;2023-02-15T13:45:10;99255.81;;;3.49;66.46
75788;BME280;64406;50.024;14.492;2023-02-15T13:53:42;99256.47;;;3.51;66.01
75788;BME280;64406;50.024;14.492;2023-02-15T13:56:21;99265.09;;;3.00;67.49
75788;BME280;64406;50.024;14.492;2023-02-15T13:59:16;99260.28;;;2.49;69.91
75788;BME280;64406;50.024;14.492;2023-02-15T14:02:15;99266.94;;;3.06;69.00
75788;BME280;64406;50.024;14.492;2023-02-15T14:07:51;99255.00;;;4.64;63.36
75788;BME280;64406;50.024;14.492;2023-02-15T14:10:38;99241.19;;;5.86;58.88
75788;BME280;64406;50.024;14.492;2023-02-15T14:16:10;99245.81;;;7.17;55.17
75788;BME280;64406;50.024;14.492;2023-02-15T14:18:58;99233.81;;;7.67;52.77
75788;BME280;64406;50.024;14.492;2023-02-15T14:21:31;99232.31;;;7.47;54.10
75788;BME280;64406;50.024;14.492;2023-02-15T14:24:27;99242.84;;;8.53;50.73
75788;BME280;64406;50.024;14.492;2023-02-15T14:27:22;99245.31;;;6.55;55.30
75788;BME280;64406;50.024;14.492;2023-02-15T14:29:59;99244.38;;;7.03;54.22
75788;BME280;64406;50.024;14.492;2023-02-15T14:32:45;99232.16;;;7.77;52.45
75788;BME280;64406;50.024;14.492;2023-02-15T14:35:18;99232.03;;;8.64;49.92
75788;BME280;64406;50.024;14.492;2023-02-15T14:46:20;99235.66;;;10.37;45.80
75788;BME280;64406;50.024;14.492;2023-02-15T14:48:55;99208.06;;;11.42;43.40
75788;BME280;64406;50.024;14.492;2023-02-15T14:59:55;99218.09;;;12.93;38.92
75788;BME280;64406;50.024;14.492;2023-02-15T15:02:29;99216.78;;;12.02;40.52
75788;BME280;64406;50.024;14.492;2023-02-15T15:07:38;99201.88;;;11.89;41.97
75788;BME280;64406;50.024;14.492;2023-02-15T15:12:44;99224.97;;;10.20;44.42
75788;BME280;64406;50.024;14.492;2023-02-15T15:17:58;99210.34;;;9.33;46.23
75788;BME280;64406;50.024;14.492;2023-02-15T15:25:48;99231.03;;;7.15;52.12
75788;BME280;64406;50.024;14.492;2023-02-15T15:42:01;99219.72;;;3.73;63.88
75788;BME280;64406;50.024;14.492;2023-02-15T15:45:02;99212.66;;;3.27;64.86
75788;BME280;64406;50.024;14.492;2023-02-15T15:48:02;99218.81;;;2.94;65.91